Longlake, Louisiana
Current Conditions -  °F | °C
As of 12:53 PM on Friday 28 Nov 2014 (Local Time) from KMLU Reporting Station
Clear Clear  
Wind Chill: 58°   Ceiling: Unl
Heat Index: 58°   Visibility: 10mi
Dew Point: 35°   Wind: 7mph
Humidity: 42%   Direction: 160°SSE
Pressure: 30.28"   Gusts: NA
Location:  32.1631°N, 92.1971°W
Report Text: KMLU 281853Z 16006KT 10SM CLR 14/02 A3028 RMK AO2 SLP254 T01440017
Loading
Personal Weather Stations






























Interactive Weather Map New forecast layout! Learn more

10-Day Weather Forecast

Advertisements
Track Severe Weather on mobile